createdAt,value
2023-04-18T00:00:06.557Z,100.00
2023-04-18T00:02:55.716Z,100.00
2023-04-18T00:05:47.911Z,100.00
2023-04-18T00:08:36.378Z,100.00
2023-04-18T00:11:24.808Z,100.00
2023-04-18T00:14:13.748Z,100.00
2023-04-18T00:17:03.841Z,100.00
2023-04-18T00:19:52.925Z,100.00
2023-04-18T00:22:42.631Z,100.00
2023-04-18T00:25:31.443Z,100.00
2023-04-18T00:28:19.907Z,100.00
2023-04-18T00:31:08.568Z,100.00
2023-04-18T00:33:58.480Z,100.00
2023-04-18T00:36:46.988Z,100.00
2023-04-18T00:39:36.442Z,100.00
2023-04-18T00:42:25.939Z,100.00
2023-04-18T00:45:14.395Z,100.00
2023-04-18T00:48:03.389Z,100.00
2023-04-18T00:50:54.284Z,100.00
2023-04-18T00:53:43.099Z,100.00
2023-04-18T00:56:31.853Z,100.00
2023-04-18T00:59:20.406Z,100.00
2023-04-18T01:02:08.959Z,100.00
2023-04-18T01:04:58.540Z,100.00
2023-04-18T01:07:48.536Z,100.00
2023-04-18T01:10:37.322Z,100.00
2023-04-18T01:13:25.855Z,100.00
2023-04-18T01:16:14.433Z,100.00
2023-04-18T01:19:03.772Z,100.00
2023-04-18T01:21:54.203Z,100.00
2023-04-18T01:24:44.064Z,100.00
2023-04-18T01:27:32.547Z,100.00
2023-04-18T01:30:21.187Z,100.00
2023-04-18T01:33:09.711Z,100.00
2023-04-18T01:35:58.221Z,100.00
2023-04-18T01:38:46.746Z,100.00
2023-04-18T01:41:36.747Z,100.00
2023-04-18T01:44:25.235Z,100.00
2023-04-18T01:47:13.785Z,98.22
2023-04-18T01:50:02.971Z,97.81
2023-04-18T01:52:51.445Z,97.49
2023-04-18T01:55:39.864Z,96.76
2023-04-18T01:58:29.702Z,96.92
2023-04-18T02:01:18.262Z,97.86
2023-04-18T02:04:06.828Z,97.26
2023-04-18T02:06:55.572Z,96.36
2023-04-18T02:09:44.131Z,96.49
2023-04-18T02:12:34.206Z,96.20
2023-04-18T02:15:24.703Z,96.11
2023-04-18T02:18:13.256Z,95.83
2023-04-18T02:21:01.976Z,95.84
2023-04-18T02:23:50.994Z,95.81
2023-04-18T02:26:39.517Z,95.31
2023-04-18T02:29:28.003Z,96.28
2023-04-18T02:32:17.823Z,96.67
2023-04-18T02:35:06.870Z,96.52
2023-04-18T02:37:55.489Z,95.91
2023-04-18T02:40:43.977Z,95.98
2023-04-18T02:43:32.401Z,95.43
2023-04-18T02:46:21.226Z,95.86
2023-04-18T02:49:11.193Z,95.17
2023-04-18T02:51:59.693Z,95.77
2023-04-18T02:54:48.124Z,94.62
2023-04-18T02:57:36.593Z,93.57
2023-04-18T03:00:25.465Z,93.85
2023-04-18T03:03:13.954Z,93.72
2023-04-18T03:06:03.805Z,93.32
2023-04-18T03:08:52.279Z,92.74
2023-04-18T03:11:40.743Z,93.34
2023-04-18T03:14:29.203Z,94.00
2023-04-18T03:17:17.756Z,93.42
2023-04-18T03:20:08.010Z,93.42
2023-04-18T03:22:57.875Z,93.74
2023-04-18T03:25:46.334Z,93.40
2023-04-18T03:28:35.104Z,94.41
2023-04-18T03:31:23.579Z,92.54
2023-04-18T03:34:12.749Z,91.86
2023-04-18T03:37:01.493Z,91.61
2023-04-18T03:39:51.250Z,91.70
2023-04-18T03:42:39.789Z,92.89
2023-04-18T03:45:28.259Z,91.19
2023-04-18T03:48:16.792Z,91.04
2023-04-18T03:51:06.899Z,90.75
2023-04-18T03:53:55.467Z,91.28
2023-04-18T03:56:45.480Z,90.68
2023-04-18T03:59:33.966Z,90.09
2023-04-18T04:02:22.508Z,91.14
2023-04-18T04:05:11.114Z,91.81
2023-04-18T04:07:59.656Z,91.11
2023-04-18T04:10:48.069Z,90.49
2023-04-18T04:13:37.885Z,89.56
2023-04-18T04:16:26.452Z,90.17
2023-04-18T04:19:15.185Z,89.55
2023-04-18T04:22:03.592Z,89.55
2023-04-18T04:24:52.123Z,89.52
2023-04-18T04:27:42.751Z,89.22
2023-04-18T04:30:33.398Z,89.20
2023-04-18T04:33:25.107Z,88.65
2023-04-18T04:36:16.131Z,89.07
2023-04-18T04:39:05.834Z,89.54
2023-04-18T04:41:54.425Z,89.62
2023-04-18T04:44:43.012Z,89.92
2023-04-18T04:47:32.958Z,90.23
2023-04-18T04:50:21.668Z,89.11
2023-04-18T04:53:11.736Z,89.07
2023-04-18T04:56:00.289Z,88.73
2023-04-18T04:58:48.730Z,88.94
2023-04-18T05:01:37.281Z,88.96
2023-04-18T05:04:27.289Z,89.16
2023-04-18T05:07:16.084Z,89.48
2023-04-18T05:10:05.077Z,88.51
2023-04-18T05:12:53.583Z,88.37
2023-04-18T05:15:42.088Z,89.07
2023-04-18T05:18:31.204Z,89.26
2023-04-18T05:21:21.869Z,90.21
2023-04-18T05:24:10.626Z,90.42
2023-04-18T05:26:59.124Z,90.11
2023-04-18T05:29:49.368Z,89.95
2023-04-18T05:32:38.986Z,90.79
2023-04-18T05:35:27.508Z,91.45
2023-04-18T05:38:17.287Z,90.61
2023-04-18T05:41:05.851Z,90.83
2023-04-18T05:44:04.962Z,91.85
2023-04-18T05:47:05.668Z,91.38
2023-04-18T05:49:54.115Z,92.48
2023-04-18T05:52:42.628Z,93.53
2023-04-18T05:55:32.501Z,92.43
2023-04-18T05:58:20.977Z,91.45
2023-04-18T06:01:09.622Z,91.86
2023-04-18T06:03:58.358Z,92.06
2023-04-18T06:06:46.969Z,92.27
2023-04-18T06:09:35.789Z,92.82
2023-04-18T06:12:25.635Z,92.01
2023-04-18T06:15:14.164Z,92.37
2023-04-18T06:18:02.710Z,92.30
2023-04-18T06:20:51.615Z,92.17
2023-04-18T06:23:40.123Z,92.04
2023-04-18T06:26:28.657Z,91.65
2023-04-18T06:29:18.991Z,91.60
2023-04-18T06:32:07.604Z,92.14
2023-04-18T06:34:56.114Z,91.21
2023-04-18T06:37:44.899Z,90.48
2023-04-18T06:40:33.361Z,90.52
2023-04-18T06:43:22.517Z,90.37
2023-04-18T06:46:12.442Z,90.54
2023-04-18T06:49:01.063Z,91.39
2023-04-18T06:51:49.586Z,90.02
2023-04-18T06:54:38.076Z,91.15
2023-04-18T06:57:26.681Z,90.22
2023-04-18T07:00:16.356Z,91.08
2023-04-18T07:03:11.302Z,90.14
2023-04-18T07:06:00.317Z,88.78
2023-04-18T07:08:48.801Z,89.60
2023-04-18T07:11:37.312Z,88.14
2023-04-18T07:14:26.290Z,87.64
2023-04-18T07:17:14.911Z,88.95
2023-04-18T07:20:05.363Z,89.14
2023-04-18T07:22:53.902Z,89.26
2023-04-18T07:25:42.390Z,88.82
2023-04-18T07:28:32.037Z,89.50
2023-04-18T07:31:20.529Z,89.64
2023-04-18T07:34:09.152Z,88.67
2023-04-18T07:36:59.358Z,87.91
2023-04-18T07:39:48.545Z,87.89
2023-04-18T07:42:38.231Z,86.67
2023-04-18T07:45:27.106Z,87.29
2023-04-18T07:48:15.626Z,85.89
2023-04-18T07:51:04.519Z,86.93
2023-04-18T07:53:54.436Z,87.08
2023-04-18T07:56:42.887Z,87.51
2023-04-18T07:59:32.397Z,87.12
2023-04-18T08:02:21.514Z,87.62
2023-04-18T08:05:10.854Z,88.08
2023-04-18T08:07:59.620Z,87.93
2023-04-18T08:10:49.485Z,86.32
2023-04-18T08:13:37.930Z,86.96
2023-04-18T08:16:26.595Z,86.72
2023-04-18T08:19:15.377Z,86.25
2023-04-18T08:22:11.102Z,86.22
2023-04-18T08:25:05.093Z,87.51
2023-04-18T08:27:55.721Z,87.25
2023-04-18T08:30:48.613Z,86.85
2023-04-18T08:33:37.111Z,85.41
2023-04-18T08:36:25.961Z,85.89
2023-04-18T08:39:14.822Z,85.27
2023-04-18T08:42:04.450Z,84.21
2023-04-18T08:44:54.329Z,84.40
2023-04-18T08:47:43.191Z,85.55
2023-04-18T08:50:32.278Z,84.69
2023-04-18T08:53:21.050Z,85.75
2023-04-18T08:56:10.501Z,85.50
2023-04-18T08:59:00.261Z,84.89
2023-04-18T09:01:56.600Z,84.64
2023-04-18T09:04:49.157Z,85.06
2023-04-18T09:07:46.852Z,83.38
2023-04-18T09:10:36.549Z,82.26
2023-04-18T09:13:39.486Z,81.12
2023-04-18T09:16:29.239Z,79.57
2023-04-18T09:19:19.206Z,80.32
2023-04-18T09:22:09.846Z,80.63
2023-04-18T09:24:59.076Z,80.70
2023-04-18T09:27:47.620Z,81.45
2023-04-18T09:30:39.523Z,81.63
2023-04-18T09:33:29.311Z,81.62
2023-04-18T09:36:20.731Z,81.96
2023-04-18T09:39:09.339Z,82.58
2023-04-18T09:42:01.315Z,82.38
2023-04-18T09:45:00.790Z,81.83
2023-04-18T09:47:49.308Z,81.57
2023-04-18T09:50:40.247Z,81.37
2023-04-18T09:53:31.257Z,81.56
2023-04-18T09:56:24.698Z,81.62
2023-04-18T09:59:13.941Z,82.23
2023-04-18T10:02:04.087Z,80.41
2023-04-18T10:04:53.459Z,80.42
2023-04-18T10:07:42.979Z,80.88
2023-04-18T10:10:33.376Z,80.84
2023-04-18T10:13:21.993Z,81.17
2023-04-18T10:16:11.038Z,80.12
2023-04-18T10:19:23.030Z,79.82
2023-04-18T10:22:12.780Z,79.12
2023-04-18T10:25:01.384Z,79.53
2023-04-18T10:28:01.231Z,78.91
2023-04-18T10:30:55.099Z,79.76
2023-04-18T10:34:03.200Z,77.56
2023-04-18T10:37:05.337Z,78.37
2023-04-18T10:39:58.365Z,78.36
2023-04-18T10:43:00.426Z,77.66
2023-04-18T10:46:27.829Z,77.15
2023-04-18T10:49:21.961Z,76.87
2023-04-18T10:52:13.402Z,76.17
2023-04-18T10:55:17.539Z,76.59
2023-04-18T10:58:07.432Z,77.04
2023-04-18T11:00:56.139Z,76.43
2023-04-18T11:03:44.986Z,75.99
2023-04-18T11:06:33.541Z,75.94
2023-04-18T11:09:22.439Z,76.41
2023-04-18T11:12:12.058Z,76.36
2023-04-18T11:15:02.644Z,75.82
2023-04-18T11:17:59.375Z,75.56
2023-04-18T11:20:49.989Z,75.61
2023-04-18T11:23:38.558Z,74.91
2023-04-18T11:26:30.725Z,72.83
2023-04-18T11:29:19.230Z,72.76
2023-04-18T11:32:09.817Z,73.32
2023-04-18T11:34:58.372Z,72.89
2023-04-18T11:37:46.871Z,73.23
2023-04-18T11:40:35.595Z,73.73
2023-04-18T11:43:25.845Z,73.82
2023-04-18T11:46:14.708Z,74.46
2023-04-18T11:49:04.730Z,75.06
2023-04-18T11:51:53.616Z,75.66
2023-04-18T11:54:43.346Z,75.41
2023-04-18T11:57:32.935Z,75.94
2023-04-18T12:00:32.448Z,77.07
2023-04-18T12:03:22.569Z,76.78
2023-04-18T12:06:12.580Z,77.03
2023-04-18T12:09:01.319Z,75.83
2023-04-18T12:12:00.951Z,75.89
2023-04-18T12:14:50.865Z,73.63
2023-04-18T12:17:39.392Z,74.31
2023-04-18T12:20:36.357Z,73.05
2023-04-18T12:23:35.322Z,72.52
2023-04-18T12:26:23.868Z,73.62
2023-04-18T12:29:12.653Z,72.09
2023-04-18T12:32:01.566Z,73.14
2023-04-18T12:34:50.248Z,71.90
2023-04-18T12:37:38.720Z,72.01
2023-04-18T12:40:29.528Z,72.06
2023-04-18T12:43:18.345Z,71.97
2023-04-18T12:46:07.009Z,72.55
2023-04-18T12:48:57.116Z,71.28
2023-04-18T12:51:45.583Z,70.71
2023-04-18T12:54:36.154Z,70.89
2023-04-18T12:57:28.633Z,70.54
2023-04-18T13:00:18.639Z,70.04
2023-04-18T13:03:12.432Z,69.57
2023-04-18T13:06:01.709Z,69.04
2023-04-18T13:08:50.348Z,68.00
2023-04-18T13:11:38.819Z,67.93
2023-04-18T13:14:28.751Z,68.01
2023-04-18T13:17:17.307Z,68.43
2023-04-18T13:20:07.096Z,68.48
2023-04-18T13:22:55.703Z,67.42
2023-04-18T13:25:44.461Z,67.81
2023-04-18T13:28:33.491Z,68.34
2023-04-18T13:31:23.340Z,68.08
2023-04-18T13:34:11.738Z,68.22
2023-04-18T13:37:00.265Z,68.17
2023-04-18T13:39:48.826Z,66.51
2023-04-18T13:42:38.055Z,65.88
2023-04-18T13:45:26.580Z,66.61
2023-04-18T13:48:16.589Z,66.87
2023-04-18T13:51:05.763Z,66.77
2023-04-18T13:53:54.344Z,67.20
2023-04-18T13:56:43.304Z,66.02
2023-04-18T13:59:32.519Z,66.39
2023-04-18T14:02:21.294Z,65.75
2023-04-18T14:05:11.558Z,65.68
2023-04-18T14:08:03.709Z,65.76
2023-04-18T14:10:52.302Z,66.31
2023-04-18T14:13:40.801Z,67.59
2023-04-18T14:16:31.760Z,67.27
2023-04-18T14:19:20.973Z,68.06
2023-04-18T14:22:11.049Z,69.07
2023-04-18T14:24:59.645Z,68.48
2023-04-18T14:27:48.974Z,68.03
2023-04-18T14:30:37.690Z,67.38
2023-04-18T14:33:26.213Z,67.59
2023-04-18T14:36:16.901Z,67.29
2023-04-18T14:39:07.021Z,66.22
2023-04-18T14:41:55.914Z,65.14
2023-04-18T14:44:44.498Z,63.18
2023-04-18T14:47:34.571Z,62.19
2023-04-18T14:50:23.368Z,62.42
2023-04-18T14:53:13.859Z,61.27
2023-04-18T14:56:03.751Z,61.80
2023-04-18T14:58:52.238Z,61.72
2023-04-18T15:01:41.477Z,62.33
2023-04-18T15:04:30.076Z,62.64
2023-04-18T15:07:18.768Z,60.96
2023-04-18T15:10:08.620Z,61.24
2023-04-18T15:12:58.527Z,60.53
2023-04-18T15:15:52.512Z,61.47
2023-04-18T15:18:41.036Z,61.46
2023-04-18T15:21:29.593Z,62.61
2023-04-18T15:24:18.187Z,63.03
2023-04-18T15:27:07.706Z,62.95
2023-04-18T15:29:57.593Z,62.46
2023-04-18T15:32:46.103Z,62.31
2023-04-18T15:35:34.662Z,60.77
2023-04-18T15:38:23.186Z,60.61
2023-04-18T15:41:11.686Z,61.20
2023-04-18T15:44:00.258Z,60.75
2023-04-18T15:46:50.923Z,60.91
2023-04-18T15:49:39.391Z,61.34
2023-04-18T15:52:27.929Z,61.95
2023-04-18T15:55:16.473Z,62.23
2023-04-18T15:58:05.018Z,62.17
2023-04-18T16:00:53.514Z,61.79
2023-04-18T16:03:43.540Z,62.48
2023-04-18T16:06:32.237Z,62.11
2023-04-18T16:09:20.729Z,61.43
2023-04-18T16:12:09.260Z,62.09
2023-04-18T16:14:57.782Z,62.15
2023-04-18T16:17:46.803Z,61.67
2023-04-18T16:20:36.746Z,61.82
2023-04-18T16:23:26.145Z,61.07
2023-04-18T16:26:14.651Z,62.01
2023-04-18T16:29:03.150Z,61.59
2023-04-18T16:31:52.475Z,62.01
2023-04-18T16:34:41.098Z,62.90
2023-04-18T16:37:31.002Z,63.33
2023-04-18T16:40:19.518Z,63.89
2023-04-18T16:43:07.977Z,64.10
2023-04-18T16:45:57.607Z,64.67
2023-04-18T16:48:46.191Z,64.30
2023-04-18T16:51:36.184Z,64.49
2023-04-18T16:54:26.163Z,64.85
2023-04-18T16:57:14.828Z,65.75
2023-04-18T17:00:05.034Z,66.15
2023-04-18T17:02:55.658Z,65.14
2023-04-18T17:05:44.571Z,65.67
2023-04-18T17:08:33.737Z,65.86
2023-04-18T17:11:23.559Z,66.29
2023-04-18T17:14:12.372Z,65.63
2023-04-18T17:17:00.913Z,66.22
2023-04-18T17:19:49.411Z,66.51
2023-04-18T17:22:38.021Z,66.08
2023-04-18T17:25:26.588Z,65.47
2023-04-18T17:28:16.578Z,65.80
2023-04-18T17:31:05.611Z,66.26
2023-04-18T17:33:54.551Z,65.93
2023-04-18T17:36:43.130Z,65.32
2023-04-18T17:39:32.287Z,66.17
2023-04-18T17:42:21.206Z,66.65
2023-04-18T17:45:11.390Z,67.04
2023-04-18T17:48:02.158Z,66.86
2023-04-18T17:50:50.728Z,66.65
2023-04-18T17:53:39.246Z,66.50
2023-04-18T17:56:28.143Z,66.54
2023-04-18T17:59:16.977Z,66.15
2023-04-18T18:02:06.917Z,66.53
2023-04-18T18:04:56.286Z,66.21
2023-04-18T18:07:50.303Z,66.65
2023-04-18T18:10:39.535Z,66.85
2023-04-18T18:13:27.995Z,67.09
2023-04-18T18:16:16.520Z,67.48
2023-04-18T18:19:07.366Z,67.94
2023-04-18T18:21:56.018Z,68.57
2023-04-18T18:24:44.560Z,68.41
2023-04-18T18:27:33.676Z,68.20
2023-04-18T18:30:22.239Z,68.91
2023-04-18T18:33:10.835Z,68.75
2023-04-18T18:36:01.327Z,69.11
2023-04-18T18:38:49.857Z,69.50
2023-04-18T18:41:38.475Z,69.53
2023-04-18T18:44:27.208Z,70.01
2023-04-18T18:47:15.654Z,70.06
2023-04-18T18:50:04.414Z,70.14
2023-04-18T18:52:54.245Z,69.94
2023-04-18T18:55:42.757Z,70.73
2023-04-18T18:58:31.293Z,70.36
2023-04-18T19:01:20.542Z,70.64
2023-04-18T19:04:09.267Z,70.75
2023-04-18T19:06:57.966Z,71.10
2023-04-18T19:09:47.877Z,71.06
2023-04-18T19:12:36.359Z,71.27
2023-04-18T19:15:25.007Z,71.22
2023-04-18T19:18:13.736Z,71.41
2023-04-18T19:21:02.261Z,71.55
2023-04-18T19:23:50.817Z,72.10
2023-04-18T19:26:40.710Z,72.34
2023-04-18T19:29:31.913Z,72.75
2023-04-18T19:32:21.822Z,72.84
2023-04-18T19:35:13.146Z,72.62
2023-04-18T19:38:02.341Z,72.73
2023-04-18T19:40:50.892Z,72.75
2023-04-18T19:43:42.482Z,72.70
2023-04-18T19:46:31.141Z,73.02
2023-04-18T19:49:19.727Z,73.30
2023-04-18T19:52:08.196Z,73.66
2023-04-18T19:54:56.656Z,73.75
2023-04-18T19:57:45.148Z,73.84
2023-04-18T20:00:35.172Z,74.29
2023-04-18T20:03:23.770Z,75.09
2023-04-18T20:06:12.355Z,75.73
2023-04-18T20:09:01.350Z,75.40
2023-04-18T20:11:49.894Z,75.17
2023-04-18T20:14:38.353Z,74.82
2023-04-18T20:17:30.505Z,75.04
2023-04-18T20:20:19.109Z,75.66
2023-04-18T20:23:07.737Z,75.68
2023-04-18T20:25:59.355Z,75.97
2023-04-18T20:28:47.870Z,76.15
2023-04-18T20:31:41.683Z,76.18
2023-04-18T20:34:32.132Z,76.51
2023-04-18T20:37:20.706Z,76.34
2023-04-18T20:40:11.248Z,76.55
2023-04-18T20:43:03.068Z,77.28
2023-04-18T20:45:51.855Z,77.03
2023-04-18T20:48:40.489Z,76.83
2023-04-18T20:51:31.768Z,77.47
2023-04-18T20:54:20.245Z,77.69
2023-04-18T20:57:09.105Z,78.07
2023-04-18T20:59:58.663Z,77.77
2023-04-18T21:02:47.292Z,78.56
2023-04-18T21:05:35.912Z,78.69
2023-04-18T21:08:25.746Z,78.73
2023-04-18T21:11:14.221Z,78.53
2023-04-18T21:14:03.754Z,79.17
2023-04-18T21:16:52.201Z,79.39
2023-04-18T21:19:40.765Z,79.53
2023-04-18T21:22:29.285Z,79.64
2023-04-18T21:25:21.142Z,79.54
2023-04-18T21:28:09.664Z,80.00
2023-04-18T21:30:58.129Z,79.62
2023-04-18T21:33:46.655Z,79.43
2023-04-18T21:36:35.224Z,79.59
2023-04-18T21:39:23.696Z,79.22
2023-04-18T21:42:13.507Z,79.41
2023-04-18T21:45:02.155Z,80.24
2023-04-18T21:47:50.832Z,79.81
2023-04-18T21:50:39.301Z,80.36
2023-04-18T21:53:27.839Z,80.31
2023-04-18T21:56:16.992Z,80.46
2023-04-18T21:59:06.880Z,80.62
2023-04-18T22:01:55.484Z,81.31
2023-04-18T22:04:44.149Z,81.00
2023-04-18T22:07:33.327Z,81.16
2023-04-18T22:10:22.920Z,81.67
2023-04-18T22:13:11.477Z,81.38
2023-04-18T22:16:03.552Z,81.97
2023-04-18T22:18:52.173Z,82.04
2023-04-18T22:21:40.667Z,81.82
2023-04-18T22:24:29.120Z,82.15
2023-04-18T22:27:17.600Z,81.95
2023-04-18T22:30:07.197Z,82.93
2023-04-18T22:32:57.170Z,82.78
2023-04-18T22:35:45.875Z,82.92
2023-04-18T22:38:34.372Z,83.15
2023-04-18T22:41:22.869Z,82.70
2023-04-18T22:44:11.344Z,82.41
2023-04-18T22:46:59.803Z,82.85
2023-04-18T22:49:49.763Z,83.26
2023-04-18T22:52:38.192Z,82.91
2023-04-18T22:55:26.665Z,83.35
2023-04-18T22:58:15.278Z,83.55
2023-04-18T23:01:03.893Z,83.91
2023-04-18T23:03:52.470Z,83.76
2023-04-18T23:06:42.392Z,84.24
2023-04-18T23:09:31.837Z,83.92
2023-04-18T23:12:20.959Z,84.56
2023-04-18T23:15:09.953Z,84.19
2023-04-18T23:17:58.453Z,84.65
2023-04-18T23:20:47.023Z,84.71
2023-04-18T23:23:36.851Z,85.05
2023-04-18T23:26:25.447Z,84.63
2023-04-18T23:29:13.960Z,84.82
2023-04-18T23:32:02.408Z,84.85
2023-04-18T23:34:51.208Z,85.52
2023-04-18T23:37:39.738Z,86.19
2023-04-18T23:40:29.566Z,86.01
2023-04-18T23:43:17.986Z,86.14
2023-04-18T23:46:06.649Z,86.28
2023-04-18T23:48:55.176Z,86.59
2023-04-18T23:51:43.694Z,86.95
2023-04-18T23:54:32.174Z,87.40
2023-04-18T23:57:22.095Z,87.34
